createdAt,value
2023-01-28T00:00:10.502Z,-4.60
2023-01-28T00:02:41.390Z,-4.61
2023-01-28T00:05:09.727Z,-4.62
2023-01-28T00:07:37.905Z,-4.63
2023-01-28T00:10:06.691Z,-4.65
2023-01-28T00:12:35.283Z,-4.66
2023-01-28T00:15:03.310Z,-4.68
2023-01-28T00:17:31.728Z,-4.69
2023-01-28T00:20:00.927Z,-4.69
2023-01-28T00:22:33.076Z,-4.70
2023-01-28T00:25:01.262Z,-4.69
2023-01-28T00:27:29.533Z,-4.70
2023-01-28T00:29:57.590Z,-4.63
2023-01-28T00:32:25.916Z,-4.61
2023-01-28T00:34:53.977Z,-4.56
2023-01-28T00:37:22.974Z,-4.56
2023-01-28T00:39:51.056Z,-4.62
2023-01-28T00:42:19.440Z,-4.62
2023-01-28T00:44:48.254Z,-4.65
2023-01-28T00:47:16.339Z,-4.65
2023-01-28T00:49:44.483Z,-4.67
2023-01-28T00:52:12.593Z,-4.71
2023-01-28T00:54:41.568Z,-4.72
2023-01-28T00:57:10.891Z,-4.75
2023-01-28T00:59:43.418Z,-4.78
2023-01-28T01:02:14.535Z,-4.78
2023-01-28T01:04:55.320Z,-4.79
2023-01-28T01:07:35.207Z,-4.80
2023-01-28T01:10:04.080Z,-4.91
2023-01-28T01:12:32.634Z,-4.91
2023-01-28T01:15:04.752Z,-4.85
2023-01-28T01:17:33.266Z,-4.83
2023-01-28T01:20:09.861Z,-4.81
2023-01-28T01:22:38.239Z,-4.82
2023-01-28T01:25:07.420Z,-4.82
2023-01-28T01:27:35.449Z,-4.80
2023-01-28T01:30:03.944Z,-4.78
2023-01-28T01:32:35.971Z,-4.82
2023-01-28T01:35:14.023Z,-4.79
2023-01-28T01:37:45.341Z,-4.82
2023-01-28T01:40:16.002Z,-4.78
2023-01-28T01:42:44.288Z,-4.74
2023-01-28T01:45:17.714Z,-4.72
2023-01-28T01:48:00.123Z,-4.72
2023-01-28T01:50:45.910Z,-4.66
2023-01-28T01:53:21.500Z,-4.69
2023-01-28T01:56:04.959Z,-4.61
2023-01-28T01:58:36.685Z,-4.60
2023-01-28T02:01:05.981Z,-4.59
2023-01-28T02:03:41.847Z,-4.70
2023-01-28T02:06:10.321Z,-4.75
2023-01-28T02:08:38.276Z,-4.79
2023-01-28T02:11:07.819Z,-4.83
2023-01-28T02:13:41.278Z,-4.90
2023-01-28T02:16:10.410Z,-4.99
2023-01-28T02:18:38.888Z,-5.06
2023-01-28T02:21:15.917Z,-5.11
2023-01-28T02:23:54.470Z,-5.15
2023-01-28T02:26:46.558Z,-5.19
2023-01-28T02:29:19.062Z,-5.23
2023-01-28T02:32:00.002Z,-5.27
2023-01-28T02:34:32.890Z,-5.34
2023-01-28T02:37:10.466Z,-5.35
2023-01-28T02:39:46.085Z,-5.39
2023-01-28T02:42:34.762Z,-5.42
2023-01-28T02:45:03.096Z,-5.47
2023-01-28T02:47:50.040Z,-5.46
2023-01-28T02:50:19.105Z,-5.49
2023-01-28T02:53:44.408Z,-5.57
2023-01-28T02:56:40.692Z,-5.58
2023-01-28T02:59:31.569Z,-5.61
2023-01-28T03:02:10.809Z,-5.63
2023-01-28T03:04:45.849Z,-5.65
2023-01-28T03:07:15.896Z,-5.67
2023-01-28T03:09:46.305Z,-5.69
2023-01-28T03:12:45.136Z,-5.71
2023-01-28T03:15:53.725Z,-5.73
2023-01-28T03:18:47.682Z,-5.72
2023-01-28T03:21:52.915Z,-5.75
2023-01-28T03:24:43.700Z,-5.78
2023-01-28T03:27:36.166Z,-5.84
2023-01-28T03:30:28.914Z,-5.83
2023-01-28T03:33:15.861Z,-5.87
2023-01-28T03:36:20.981Z,-5.86
2023-01-28T03:38:49.143Z,-5.88
2023-01-28T03:41:22.866Z,-5.89
2023-01-28T03:43:52.078Z,-5.92
2023-01-28T03:46:20.430Z,-5.89
2023-01-28T03:48:48.760Z,-5.93
2023-01-28T03:51:18.159Z,-5.98
2023-01-28T03:53:46.290Z,-5.97
2023-01-28T03:56:19.877Z,-5.99
2023-01-28T03:58:54.503Z,-6.03
2023-01-28T04:01:22.958Z,-5.97
2023-01-28T04:03:50.894Z,-5.98
2023-01-28T04:06:20.116Z,-6.02
2023-01-28T04:09:00.484Z,-6.03
2023-01-28T04:11:29.139Z,-6.01
2023-01-28T04:13:58.208Z,-6.02
2023-01-28T04:16:26.618Z,-6.01
2023-01-28T04:18:55.112Z,-6.01
2023-01-28T04:21:23.358Z,-5.99
2023-01-28T04:23:51.978Z,-5.96
2023-01-28T04:26:22.185Z,-6.00
2023-01-28T04:28:50.246Z,-5.98
2023-01-28T04:31:18.200Z,-5.97
2023-01-28T04:33:47.013Z,-5.97
2023-01-28T04:36:15.068Z,-5.96
2023-01-28T04:38:43.371Z,-5.91
2023-01-28T04:41:11.704Z,-5.87
2023-01-28T04:43:39.811Z,-5.86
2023-01-28T04:46:07.848Z,-5.82
2023-01-28T04:48:36.993Z,-5.80
2023-01-28T04:51:05.531Z,-5.81
2023-01-28T04:53:33.968Z,-5.82
2023-01-28T04:56:02.031Z,-5.78
2023-01-28T04:58:30.333Z,-5.78
2023-01-28T05:00:59.554Z,-5.74
2023-01-28T05:03:27.677Z,-5.70
2023-01-28T05:05:55.868Z,-5.68
2023-01-28T05:08:24.066Z,-5.65
2023-01-28T05:10:52.124Z,-5.61
2023-01-28T05:13:20.193Z,-5.60
2023-01-28T05:15:53.285Z,-5.60
2023-01-28T05:18:21.664Z,-5.59
2023-01-28T05:20:49.660Z,-5.58
2023-01-28T05:23:20.621Z,-5.55
2023-01-28T05:25:48.691Z,-5.52
2023-01-28T05:28:17.231Z,-5.51
2023-01-28T05:30:45.808Z,-5.49
2023-01-28T05:33:15.247Z,-5.46
2023-01-28T05:35:44.381Z,-5.45
2023-01-28T05:38:15.205Z,-5.39
2023-01-28T05:40:44.204Z,-5.38
2023-01-28T05:43:13.474Z,-5.33
2023-01-28T05:45:42.105Z,-5.24
2023-01-28T05:48:15.170Z,-5.22
2023-01-28T05:50:43.292Z,-5.18
2023-01-28T05:53:14.262Z,-5.08
2023-01-28T05:55:42.227Z,-4.99
2023-01-28T05:58:10.259Z,-4.89
2023-01-28T06:00:38.160Z,-4.78
2023-01-28T06:03:06.465Z,-4.72
2023-01-28T06:05:34.604Z,-4.71
2023-01-28T06:08:02.646Z,-4.79
2023-01-28T06:10:31.543Z,-4.80
2023-01-28T06:12:59.833Z,-4.70
2023-01-28T06:15:28.023Z,-4.66
2023-01-28T06:17:56.191Z,-4.61
2023-01-28T06:20:24.307Z,-4.64
2023-01-28T06:22:52.962Z,-4.67
2023-01-28T06:25:21.338Z,-4.59
2023-01-28T06:27:51.810Z,-4.50
2023-01-28T06:30:20.539Z,-4.54
2023-01-28T06:32:54.775Z,-4.54
2023-01-28T06:35:24.419Z,-4.48
2023-01-28T06:37:53.530Z,-4.38
2023-01-28T06:40:23.559Z,-4.40
2023-01-28T06:42:54.892Z,-4.36
2023-01-28T06:45:23.229Z,-4.36
2023-01-28T06:47:51.660Z,-4.25
2023-01-28T06:50:22.522Z,-4.27
2023-01-28T06:52:51.450Z,-4.25
2023-01-28T06:55:20.422Z,-4.26
2023-01-28T06:57:48.874Z,-4.22
2023-01-28T07:00:17.839Z,-4.30
2023-01-28T07:02:46.109Z,-4.46
2023-01-28T07:05:14.367Z,-4.44
2023-01-28T07:07:45.091Z,-4.41
2023-01-28T07:10:18.237Z,-4.34
2023-01-28T07:12:47.635Z,-4.34
2023-01-28T07:15:16.691Z,-4.34
2023-01-28T07:17:45.515Z,-4.29
2023-01-28T07:20:16.042Z,-4.27
2023-01-28T07:22:45.405Z,-4.24
2023-01-28T07:25:17.197Z,-4.12
2023-01-28T07:27:49.743Z,-4.02
2023-01-28T07:30:19.327Z,-4.08
2023-01-28T07:32:48.184Z,-4.21
2023-01-28T07:35:16.531Z,-4.14
2023-01-28T07:37:54.778Z,-4.14
2023-01-28T07:40:23.219Z,-4.07
2023-01-28T07:42:51.691Z,-4.10
2023-01-28T07:45:27.247Z,-4.29
2023-01-28T07:47:57.114Z,-4.52
2023-01-28T07:50:26.529Z,-4.54
2023-01-28T07:52:55.116Z,-4.59
2023-01-28T07:55:23.408Z,-4.66
2023-01-28T07:57:57.238Z,-4.72
2023-01-28T08:00:27.476Z,-4.75
2023-01-28T08:03:00.752Z,-4.72
2023-01-28T08:05:44.503Z,-4.75
2023-01-28T08:08:13.037Z,-4.61
2023-01-28T08:10:41.722Z,-4.58
2023-01-28T08:13:12.253Z,-4.55
2023-01-28T08:15:41.404Z,-4.40
2023-01-28T08:18:13.654Z,-4.33
2023-01-28T08:20:45.082Z,-4.47
2023-01-28T08:23:19.049Z,-4.46
2023-01-28T08:25:48.055Z,-4.30
2023-01-28T08:28:17.371Z,-4.17
2023-01-28T08:30:48.049Z,-4.15
2023-01-28T08:33:17.550Z,-4.13
2023-01-28T08:35:45.796Z,-4.03
2023-01-28T08:38:18.400Z,-4.04
2023-01-28T08:40:47.232Z,-4.09
2023-01-28T08:43:15.871Z,-3.94
2023-01-28T08:45:44.757Z,-3.80
2023-01-28T08:48:17.075Z,-3.78
2023-01-28T08:50:45.894Z,-3.79
2023-01-28T08:53:22.002Z,-3.68
2023-01-28T08:55:50.191Z,-3.68
2023-01-28T08:58:19.854Z,-3.46
2023-01-28T09:00:48.705Z,-3.35
2023-01-28T09:03:17.935Z,-3.26
2023-01-28T09:05:47.162Z,-3.26
2023-01-28T09:08:16.432Z,-3.21
2023-01-28T09:10:45.057Z,-3.12
2023-01-28T09:13:15.809Z,-3.20
2023-01-28T09:15:44.467Z,-3.22
2023-01-28T09:18:12.791Z,-3.21
2023-01-28T09:20:41.188Z,-3.35
2023-01-28T09:23:10.526Z,-3.31
2023-01-28T09:25:39.596Z,-3.36
2023-01-28T09:28:08.699Z,-3.19
2023-01-28T09:30:38.401Z,-3.18
2023-01-28T09:33:07.734Z,-3.18
2023-01-28T09:35:37.258Z,-3.26
2023-01-28T09:38:05.993Z,-3.18
2023-01-28T09:40:37.843Z,-3.15
2023-01-28T09:43:26.406Z,-2.98
2023-01-28T09:46:07.108Z,-2.92
2023-01-28T09:48:48.668Z,-2.93
2023-01-28T09:51:41.237Z,-2.89
2023-01-28T09:54:23.774Z,-2.92
2023-01-28T09:56:56.418Z,-2.85
2023-01-28T09:59:25.096Z,-2.87
2023-01-28T10:02:20.199Z,-2.73
2023-01-28T10:04:59.358Z,-2.55
2023-01-28T10:07:37.468Z,-2.42
2023-01-28T10:10:22.183Z,-2.30
2023-01-28T10:12:54.587Z,-2.28
2023-01-28T10:15:37.696Z,-2.17
2023-01-28T10:18:17.284Z,-2.13
2023-01-28T10:20:50.700Z,-2.18
2023-01-28T10:23:37.560Z,-2.06
2023-01-28T10:26:12.081Z,-2.02
2023-01-28T10:28:40.521Z,-1.91
2023-01-28T10:31:16.497Z,-1.84
2023-01-28T10:33:45.039Z,-1.71
2023-01-28T10:36:13.623Z,-1.77
2023-01-28T10:38:41.750Z,-1.63
2023-01-28T10:41:12.548Z,-1.69
2023-01-28T10:43:42.608Z,-1.71
2023-01-28T10:46:23.560Z,-1.88
2023-01-28T10:49:10.668Z,-1.97
2023-01-28T10:51:41.641Z,-2.01
2023-01-28T10:54:29.030Z,-2.15
2023-01-28T10:57:03.501Z,-2.20
2023-01-28T10:59:42.145Z,-2.21
2023-01-28T11:02:32.844Z,-2.34
2023-01-28T11:05:21.329Z,-2.30
2023-01-28T11:07:52.580Z,-2.33
2023-01-28T11:10:32.730Z,-2.27
2023-01-28T11:13:03.169Z,-2.25
2023-01-28T11:15:31.922Z,-2.21
2023-01-28T11:18:10.181Z,-2.21
2023-01-28T11:20:42.559Z,-2.23
2023-01-28T11:23:25.667Z,-2.17
2023-01-28T11:26:15.317Z,-2.13
2023-01-28T11:28:43.918Z,-2.03
2023-01-28T11:31:15.932Z,-1.99
2023-01-28T11:33:54.727Z,-2.01
2023-01-28T11:36:32.863Z,-1.96
2023-01-28T11:39:02.379Z,-2.02
2023-01-28T11:41:35.706Z,-1.98
2023-01-28T11:44:27.507Z,-2.01
2023-01-28T11:47:08.052Z,-1.90
2023-01-28T11:49:54.694Z,-1.85
2023-01-28T11:52:55.195Z,-1.82
2023-01-28T11:55:40.812Z,-1.83
2023-01-28T11:58:22.942Z,-1.71
2023-01-28T12:01:27.755Z,-1.73
2023-01-28T12:04:17.162Z,-1.66
2023-01-28T12:07:12.139Z,-1.61
2023-01-28T12:09:47.091Z,-1.53
2023-01-28T12:12:34.003Z,-1.52
2023-01-28T12:15:32.736Z,-1.40
2023-01-28T12:18:26.012Z,-1.30
2023-01-28T12:21:14.016Z,-1.33
2023-01-28T12:23:58.126Z,-1.32
2023-01-28T12:26:53.575Z,-1.29
2023-01-28T12:29:25.090Z,-1.28
2023-01-28T12:31:59.223Z,-1.23
2023-01-28T12:34:45.743Z,-1.21
2023-01-28T12:37:26.426Z,-1.30
2023-01-28T12:40:13.038Z,-1.29
2023-01-28T12:42:57.901Z,-1.30
2023-01-28T12:45:42.907Z,-1.30
2023-01-28T12:48:21.665Z,-1.36
2023-01-28T12:50:57.900Z,-1.28
2023-01-28T12:53:45.524Z,-1.26
2023-01-28T12:56:24.270Z,-1.28
2023-01-28T12:59:07.431Z,-1.23
2023-01-28T13:01:44.701Z,-1.25
2023-01-28T13:04:50.161Z,-1.22
2023-01-28T13:07:24.516Z,-1.21
2023-01-28T13:10:18.233Z,-1.20
2023-01-28T13:12:47.419Z,-1.27
2023-01-28T13:15:17.973Z,-1.23
2023-01-28T13:18:00.936Z,-1.27
2023-01-28T13:20:40.480Z,-1.25
2023-01-28T13:23:26.914Z,-1.26
2023-01-28T13:25:56.262Z,-1.23
2023-01-28T13:28:32.809Z,-1.22
2023-01-28T13:31:14.719Z,-1.20
2023-01-28T13:33:43.599Z,-1.21
2023-01-28T13:36:33.531Z,-1.26
2023-01-28T13:39:06.062Z,-1.23
2023-01-28T13:41:45.711Z,-1.19
2023-01-28T13:44:28.229Z,-1.17
2023-01-28T13:47:13.209Z,-1.17
2023-01-28T13:49:56.613Z,-1.23
2023-01-28T13:52:31.031Z,-1.31
2023-01-28T13:55:25.915Z,-1.33
2023-01-28T13:58:28.833Z,-1.39
2023-01-28T14:01:20.281Z,-1.38
2023-01-28T14:04:32.821Z,-1.42
2023-01-28T14:07:18.551Z,-1.45
2023-01-28T14:10:14.403Z,-1.46
2023-01-28T14:13:07.376Z,-1.49
2023-01-28T14:15:47.230Z,-1.48
2023-01-28T14:18:40.194Z,-1.50
2023-01-28T14:21:20.455Z,-1.53
2023-01-28T14:24:00.260Z,-1.54
2023-01-28T14:27:03.993Z,-1.54
2023-01-28T14:29:59.912Z,-1.62
2023-01-28T14:32:31.213Z,-1.59
2023-01-28T14:35:02.658Z,-1.58
2023-01-28T14:37:32.118Z,-1.56
2023-01-28T14:40:06.322Z,-1.56
2023-01-28T14:42:44.453Z,-1.55
2023-01-28T14:45:49.745Z,-1.61
2023-01-28T14:48:39.096Z,-1.66
2023-01-28T14:51:32.459Z,-1.63
2023-01-28T14:54:28.542Z,-1.53
2023-01-28T14:57:29.371Z,-1.45
2023-01-28T15:00:02.632Z,-1.43
2023-01-28T15:02:32.269Z,-1.40
2023-01-28T15:05:21.714Z,-1.42
2023-01-28T15:07:52.411Z,-1.38
2023-01-28T15:10:34.556Z,-1.37
2023-01-28T15:13:12.561Z,-1.34
2023-01-28T15:15:42.275Z,-1.31
2023-01-28T15:18:23.142Z,-1.32
2023-01-28T15:20:53.740Z,-1.27
2023-01-28T15:23:28.997Z,-1.26
2023-01-28T15:25:57.491Z,-1.32
2023-01-28T15:28:31.554Z,-1.30
2023-01-28T15:31:00.367Z,-1.29
2023-01-28T15:33:33.928Z,-1.27
2023-01-28T15:36:02.470Z,-1.22
2023-01-28T15:38:30.947Z,-1.21
2023-01-28T15:41:03.819Z,-1.22
2023-01-28T15:43:35.032Z,-1.24
2023-01-28T15:46:03.423Z,-1.27
2023-01-28T15:48:33.415Z,-1.29
2023-01-28T15:51:04.084Z,-1.32
2023-01-28T15:53:42.629Z,-1.30
2023-01-28T15:56:13.598Z,-1.24
2023-01-28T15:58:42.643Z,-1.28
2023-01-28T16:01:15.124Z,-1.23
2023-01-28T16:03:45.106Z,-1.23
2023-01-28T16:06:18.919Z,-1.18
2023-01-28T16:08:59.523Z,-1.22
2023-01-28T16:11:38.856Z,-1.23
2023-01-28T16:14:07.930Z,-1.19
2023-01-28T16:16:41.029Z,-1.18
2023-01-28T16:19:24.586Z,-1.18
2023-01-28T16:21:52.564Z,-1.19
2023-01-28T16:24:25.763Z,-1.17
2023-01-28T16:27:10.663Z,-1.21
2023-01-28T16:29:39.739Z,-1.16
2023-01-28T16:32:31.055Z,-1.13
2023-01-28T16:34:59.867Z,-1.16
2023-01-28T16:37:28.453Z,-1.19
2023-01-28T16:39:58.114Z,-1.16
2023-01-28T16:42:28.452Z,-1.15
2023-01-28T16:44:56.852Z,-1.15
2023-01-28T16:47:24.925Z,-1.14
2023-01-28T16:49:52.919Z,-1.13
2023-01-28T16:52:20.879Z,-1.17
2023-01-28T16:54:49.051Z,-1.18
2023-01-28T16:57:19.372Z,-1.19
2023-01-28T16:59:47.523Z,-1.12
2023-01-28T17:02:17.262Z,-1.13
2023-01-28T17:04:49.076Z,-1.11
2023-01-28T17:07:19.780Z,-1.18
2023-01-28T17:09:48.197Z,-1.22
2023-01-28T17:12:16.446Z,-1.16
2023-01-28T17:14:44.291Z,-1.13
2023-01-28T17:17:12.564Z,-1.09
2023-01-28T17:19:44.241Z,-1.14
2023-01-28T17:22:12.431Z,-1.16
2023-01-28T17:24:40.502Z,-1.11
2023-01-28T17:27:08.484Z,-1.13
2023-01-28T17:29:36.860Z,-1.10
2023-01-28T17:32:05.759Z,-1.10
2023-01-28T17:34:34.596Z,-1.04
2023-01-28T17:37:06.567Z,-1.05
2023-01-28T17:39:34.985Z,-1.07
2023-01-28T17:42:03.562Z,-1.07
2023-01-28T17:44:31.873Z,-1.09
2023-01-28T17:47:00.944Z,-1.08
2023-01-28T17:49:29.055Z,-1.05
2023-01-28T17:51:57.130Z,-1.04
2023-01-28T17:54:27.345Z,-1.06
2023-01-28T17:56:56.594Z,-1.02
2023-01-28T17:59:26.006Z,-1.02
2023-01-28T18:01:55.854Z,-1.03
2023-01-28T18:04:24.389Z,-1.04
2023-01-28T18:06:52.953Z,-1.05
2023-01-28T18:09:21.439Z,-1.06
2023-01-28T18:11:52.480Z,-1.01
2023-01-28T18:14:23.000Z,-0.94
2023-01-28T18:16:52.491Z,-0.96
2023-01-28T18:19:21.262Z,-0.99
2023-01-28T18:21:53.375Z,-0.96
2023-01-28T18:24:24.717Z,-0.90
2023-01-28T18:26:58.607Z,-0.89
2023-01-28T18:29:27.975Z,-0.84
2023-01-28T18:31:57.078Z,-0.85
2023-01-28T18:34:27.123Z,-0.86
2023-01-28T18:36:57.711Z,-0.84
2023-01-28T18:39:30.846Z,-0.81
2023-01-28T18:41:59.966Z,-0.80
2023-01-28T18:44:33.508Z,-0.75
2023-01-28T18:47:02.051Z,-0.80
2023-01-28T18:49:32.349Z,-0.72
2023-01-28T18:52:00.815Z,-0.72
2023-01-28T18:54:29.383Z,-0.69
2023-01-28T18:56:58.254Z,-0.66
2023-01-28T18:59:26.732Z,-0.66
2023-01-28T19:01:55.197Z,-0.68
2023-01-28T19:04:23.348Z,-0.64
2023-01-28T19:06:52.182Z,-0.64
2023-01-28T19:09:20.747Z,-0.65
2023-01-28T19:11:53.585Z,-0.66
2023-01-28T19:14:21.642Z,-0.66
2023-01-28T19:16:49.989Z,-0.67
2023-01-28T19:19:18.786Z,-0.65
2023-01-28T19:21:47.776Z,-0.67
2023-01-28T19:24:19.603Z,-0.71
2023-01-28T19:26:50.656Z,-0.69
2023-01-28T19:29:19.903Z,-0.71
2023-01-28T19:31:50.191Z,-0.67
2023-01-28T19:34:21.807Z,-0.64
2023-01-28T19:36:50.512Z,-0.63
2023-01-28T19:39:21.356Z,-0.66
2023-01-28T19:41:49.861Z,-0.60
2023-01-28T19:44:18.984Z,-0.55
2023-01-28T19:46:48.199Z,-0.52
2023-01-28T19:49:19.473Z,-0.51
2023-01-28T19:51:48.432Z,-0.55
2023-01-28T19:54:17.027Z,-0.55
2023-01-28T19:56:45.442Z,-0.63
2023-01-28T19:59:15.542Z,-0.60
2023-01-28T20:01:44.228Z,-0.59
2023-01-28T20:04:12.983Z,-0.60
2023-01-28T20:06:41.567Z,-0.57
2023-01-28T20:09:20.599Z,-0.53
2023-01-28T20:11:48.829Z,-0.53
2023-01-28T20:14:18.430Z,-0.54
2023-01-28T20:16:46.444Z,-0.50
2023-01-28T20:19:19.551Z,-0.47
2023-01-28T20:21:48.387Z,-0.41
2023-01-28T20:24:17.042Z,-0.40
2023-01-28T20:26:45.588Z,-0.40
2023-01-28T20:29:18.335Z,-0.39
2023-01-28T20:31:54.629Z,-0.38
2023-01-28T20:34:34.717Z,-0.40
2023-01-28T20:37:03.705Z,-0.35
2023-01-28T20:39:35.024Z,-0.33
2023-01-28T20:42:07.253Z,-0.30
2023-01-28T20:44:36.068Z,-0.34
2023-01-28T20:47:05.267Z,-0.31
2023-01-28T20:49:34.433Z,-0.29
2023-01-28T20:52:02.946Z,-0.25
2023-01-28T20:54:34.892Z,-0.22
2023-01-28T20:57:05.095Z,-0.20
2023-01-28T20:59:33.037Z,-0.21
2023-01-28T21:02:01.354Z,-0.20
2023-01-28T21:04:30.540Z,-0.19
2023-01-28T21:06:59.173Z,-0.18
2023-01-28T21:09:28.284Z,-0.15
2023-01-28T21:11:59.289Z,-0.17
2023-01-28T21:14:27.888Z,-0.14
2023-01-28T21:16:56.332Z,-0.12
2023-01-28T21:19:27.367Z,-0.16
2023-01-28T21:21:57.963Z,-0.09
2023-01-28T21:24:26.793Z,-0.09
2023-01-28T21:26:55.158Z,-0.08
2023-01-28T21:29:23.409Z,-0.09
2023-01-28T21:31:51.556Z,-0.03
2023-01-28T21:34:20.443Z,-0.03
2023-01-28T21:36:48.737Z,-0.04
2023-01-28T21:39:16.776Z,-0.02
2023-01-28T21:41:45.115Z,0.03
2023-01-28T21:44:13.880Z,-0.01
2023-01-28T21:46:42.649Z,0.04
2023-01-28T21:49:15.992Z,-0.01
2023-01-28T21:51:47.598Z,0.01
2023-01-28T21:54:18.262Z,0.05
2023-01-28T21:56:49.357Z,-0.02
2023-01-28T21:59:33.461Z,-0.02
2023-01-28T22:02:05.448Z,-0.04
2023-01-28T22:04:39.028Z,-0.03
2023-01-28T22:07:09.865Z,-0.05
2023-01-28T22:09:38.709Z,0.00
2023-01-28T22:12:08.477Z,-0.03
2023-01-28T22:14:38.241Z,0.02
2023-01-28T22:17:11.776Z,-0.07
2023-01-28T22:19:40.693Z,0.00
2023-01-28T22:22:08.701Z,-0.01
2023-01-28T22:24:36.920Z,0.02
2023-01-28T22:27:05.011Z,0.00
2023-01-28T22:29:33.611Z,0.05
2023-01-28T22:32:06.058Z,0.02
2023-01-28T22:34:35.542Z,0.03
2023-01-28T22:37:03.778Z,0.07
2023-01-28T22:39:31.783Z,0.05
2023-01-28T22:42:00.611Z,0.04
2023-01-28T22:44:28.929Z,0.05
2023-01-28T22:46:57.426Z,0.02
2023-01-28T22:49:27.289Z,0.02
2023-01-28T22:51:55.523Z,-0.03
2023-01-28T22:54:23.587Z,-0.03
2023-01-28T22:56:52.207Z,-0.05
2023-01-28T22:59:20.448Z,-0.01
2023-01-28T23:01:48.950Z,-0.03
2023-01-28T23:04:17.659Z,-0.06
2023-01-28T23:06:46.024Z,-0.06
2023-01-28T23:09:14.588Z,-0.06
2023-01-28T23:11:43.525Z,-0.06
2023-01-28T23:14:47.904Z,-0.07
2023-01-28T23:17:34.635Z,-0.10
2023-01-28T23:20:21.652Z,-0.12
2023-01-28T23:23:08.125Z,-0.12
2023-01-28T23:25:36.600Z,-0.09
2023-01-28T23:28:05.022Z,-0.10
2023-01-28T23:30:34.220Z,-0.15
2023-01-28T23:33:04.615Z,-0.10
2023-01-28T23:35:33.176Z,-0.12
2023-01-28T23:38:01.558Z,-0.13
2023-01-28T23:40:30.699Z,-0.14
2023-01-28T23:42:58.904Z,-0.14
2023-01-28T23:45:27.898Z,-0.16
2023-01-28T23:47:56.685Z,-0.15
2023-01-28T23:50:24.853Z,-0.18
2023-01-28T23:52:55.243Z,-0.20
2023-01-28T23:55:24.528Z,-0.26
2023-01-28T23:57:53.100Z,-0.26
